Time;durP1;ratioP1;P1;durP2;ratioP2;P2;SDS_P1;SDS_P2;PMS_P1;PMS_P2;Temp;Humidity;BMP_temperature;BMP_pressure;BME280_temperature;BME280_humidity;BME280_pressure;Samples;Min_cycle;Max_cycle;Signal;HPM_P1;HPM_P2
2022/09/09 00:02:28;;;;;;;0.93;0.93;;;;;;;25.05;42.09;95288.44;5059525;28;20197;-62
2022/09/09 00:05:00;;;;;;;2.13;1.23;;;;;;;24.94;42.12;95283.91;5050011;28;20203;-63
2022/09/09 00:07:56;;;;;;;0.60;0.60;;;;;;;25.25;41.79;95277.94;5051604;28;20254;-62
2022/09/09 00:10:29;;;;;;;0.63;0.63;;;;;;;25.14;41.60;95283.00;5062260;28;20227;-62
2022/09/09 00:13:29;;;;;;;1.27;1.17;;;;;;;24.78;42.59;95285.69;5069292;28;20603;-63
2022/09/09 00:16:31;;;;;;;1.33;1.23;;;;;;;24.71;43.06;95288.91;5040451;28;20758;-63
2022/09/09 00:19:11;;;;;;;0.40;0.40;;;;;;;24.61;43.30;95286.66;5077472;28;20239;-64
2022/09/09 00:21:47;;;;;;;0.83;0.83;;;;;;;24.31;43.72;95282.59;5043232;28;20200;-63
2022/09/09 00:24:27;;;;;;;1.27;1.13;;;;;;;24.85;42.66;95270.59;5060586;28;20195;-62
2022/09/09 00:27:04;;;;;;;0.83;0.83;;;;;;;24.34;43.97;95273.91;5041779;28;20204;-64
2022/09/09 00:29:47;;;;;;;0.73;0.73;;;;;;;24.45;43.76;95271.56;5063119;28;20730;-63
2022/09/09 00:32:18;;;;;;;1.30;1.20;;;;;;;24.56;43.53;95265.44;5054915;28;20200;-63
2022/09/09 00:34:55;;;;;;;1.63;1.53;;;;;;;24.64;43.68;95264.53;5057949;28;20246;-63
2022/09/09 00:37:25;;;;;;;1.73;1.17;;;;;;;24.78;42.68;95251.63;5058865;28;20273;-63
2022/09/09 00:39:57;;;;;;;0.57;0.53;;;;;;;24.79;42.80;95249.72;5061099;28;20201;-65
2022/09/09 00:42:42;;;;;;;0.33;0.33;;;;;;;24.88;42.22;95251.16;5054449;28;20192;-63
2022/09/09 00:45:28;;;;;;;0.73;0.47;;;;;;;24.80;42.72;95241.34;5056593;28;20253;-62
2022/09/09 00:47:56;;;;;;;2.20;1.50;;;;;;;24.72;43.04;95236.91;5043785;28;20251;-62
2022/09/09 00:50:43;;;;;;;0.87;0.87;;;;;;;24.63;42.92;95241.56;5057203;28;20288;-62
2022/09/09 00:53:13;;;;;;;1.57;0.87;;;;;;;24.76;42.40;95245.81;5046745;28;20192;-63
2022/09/09 00:56:06;;;;;;;1.00;0.90;;;;;;;24.90;42.09;95240.91;5050336;28;20220;-63
2022/09/09 00:58:33;;;;;;;2.40;1.93;;;;;;;24.89;41.70;95250.03;5051252;28;20286;-64
2022/09/09 01:01:10;;;;;;;1.30;1.20;;;;;;;24.93;41.42;95244.78;5051784;28;20711;-63
2022/09/09 01:03:51;;;;;;;0.90;0.90;;;;;;;24.98;41.41;95248.03;5067538;28;20204;-64
2022/09/09 01:06:18;;;;;;;1.00;0.53;;;;;;;24.87;41.68;95241.56;5047841;28;20196;-62
2022/09/09 01:08:51;;;;;;;0.33;0.33;;;;;;;24.83;41.47;95240.69;5056167;28;20667;-63
2022/09/09 01:11:50;;;;;;;0.60;0.50;;;;;;;24.90;41.50;95248.94;5038878;28;20204;-63
2022/09/09 01:14:34;;;;;;;1.63;1.30;;;;;;;24.92;41.48;95246.72;5039268;28;20188;-63
2022/09/09 01:17:27;;;;;;;1.37;1.33;;;;;;;24.88;41.67;95242.34;5071440;28;20237;-62
2022/09/09 01:20:17;;;;;;;1.30;1.10;;;;;;;24.74;41.68;95253.41;5047903;28;20210;-64
2022/09/09 01:22:56;;;;;;;6.63;1.13;;;;;;;24.73;41.63;95249.16;5041846;28;20192;-64
2022/09/09 01:25:48;;;;;;;0.50;0.50;;;;;;;24.74;41.72;95248.03;5058564;28;20554;-63
2022/09/09 01:28:26;;;;;;;0.80;0.80;;;;;;;24.72;41.66;95223.50;5050603;28;20213;-63
2022/09/09 01:30:58;;;;;;;0.37;0.37;;;;;;;24.74;41.78;95240.00;5048300;28;20588;-62
2022/09/09 01:33:30;;;;;;;1.90;1.27;;;;;;;24.61;41.84;95246.47;5057929;28;20206;-62
2022/09/09 01:36:08;;;;;;;0.83;0.77;;;;;;;24.70;41.63;95251.72;5062101;28;20311;-62
2022/09/09 01:38:54;;;;;;;0.87;0.87;;;;;;;24.65;41.66;95258.06;5044039;28;20215;-62
2022/09/09 01:41:21;;;;;;;0.63;0.63;;;;;;;24.59;41.60;95263.97;5069504;28;20227;-63
2022/09/09 01:44:04;;;;;;;1.03;1.00;;;;;;;24.06;42.59;95248.84;5044185;28;20757;-62
2022/09/09 01:46:34;;;;;;;0.90;0.83;;;;;;;24.46;42.37;95262.41;5055359;28;20603;-62
2022/09/09 01:49:04;;;;;;;3.03;1.40;;;;;;;24.41;42.60;95266.09;5052598;28;20202;-63
2022/09/09 01:51:31;;;;;;;0.50;0.50;;;;;;;24.28;42.48;95261.84;5051984;28;20208;-64
2022/09/09 01:54:03;;;;;;;2.37;0.97;;;;;;;24.28;42.52;95261.03;5057618;28;20194;-62
2022/09/09 01:56:52;;;;;;;1.00;1.00;;;;;;;24.42;42.72;95267.66;5039902;28;20197;-63
2022/09/09 01:59:37;;;;;;;0.83;0.83;;;;;;;24.45;42.15;95272.34;5035992;28;20501;-64
2022/09/09 02:02:10;;;;;;;1.30;1.20;;;;;;;24.41;42.28;95276.03;5067044;28;20619;-63
2022/09/09 02:04:45;;;;;;;1.07;1.00;;;;;;;24.58;42.08;95281.94;5046095;28;20204;-62
2022/09/09 02:07:37;;;;;;;0.83;0.83;;;;;;;24.71;41.63;95264.78;5062826;28;20580;-63
2022/09/09 02:10:24;;;;;;;1.03;1.03;;;;;;;24.43;42.03;95261.19;5066201;28;20236;-63
2022/09/09 02:13:24;;;;;;;0.87;0.87;;;;;;;24.55;41.93;95258.50;5058702;28;20193;-64
2022/09/09 02:16:04;;;;;;;6.70;1.53;;;;;;;24.65;41.50;95249.25;5048275;28;20304;-61
2022/09/09 02:18:53;;;;;;;0.57;0.57;;;;;;;24.26;42.36;95248.00;5058391;28;20224;-64
2022/09/09 02:21:29;;;;;;;1.70;0.73;;;;;;;24.15;43.14;95236.16;5051939;28;20193;-62
2022/09/09 02:23:59;;;;;;;2.97;1.67;;;;;;;24.22;42.94;95241.72;5063556;28;20229;-62
2022/09/09 02:26:28;;;;;;;0.60;0.60;;;;;;;24.31;42.83;95238.94;5040961;28;20195;-63
2022/09/09 02:29:07;;;;;;;8.90;1.13;;;;;;;24.32;42.46;95240.53;5043039;28;20308;-64
2022/09/09 02:31:36;;;;;;;2.23;1.57;;;;;;;24.39;42.23;95251.47;5062933;28;20576;-62
2022/09/09 02:34:11;;;;;;;1.03;0.80;;;;;;;24.29;42.40;95252.69;5061864;28;20286;-62
2022/09/09 02:36:41;;;;;;;1.00;1.00;;;;;;;24.37;42.10;95253.69;5034599;28;20592;-62
2022/09/09 02:39:09;;;;;;;0.87;0.87;;;;;;;24.38;42.35;95256.03;5038010;28;20299;-63
2022/09/09 02:41:39;;;;;;;0.97;0.97;;;;;;;24.16;42.55;95248.41;5047061;28;20204;-62
2022/09/09 02:44:17;;;;;;;0.43;0.43;;;;;;;24.12;42.95;95250.22;5059529;28;20308;-64
2022/09/09 02:46:59;;;;;;;0.87;0.70;;;;;;;24.22;42.71;95257.81;5039912;28;20261;-63
2022/09/09 02:49:32;;;;;;;0.87;0.87;;;;;;;24.12;42.98;95263.59;5055553;28;20306;-62
2022/09/09 02:52:15;;;;;;;0.60;0.60;;;;;;;24.13;43.00;95267.81;5050231;28;20667;-63
2022/09/09 02:54:43;;;;;;;0.60;0.60;;;;;;;24.08;42.65;95258.13;5063484;28;20756;-63
2022/09/09 02:57:27;;;;;;;1.03;0.97;;;;;;;24.07;42.68;95261.91;5034177;28;20220;-62
2022/09/09 02:59:58;;;;;;;1.93;1.70;;;;;;;23.82;43.56;95254.88;5029900;28;20201;-63
2022/09/09 03:02:25;;;;;;;0.70;0.70;;;;;;;23.71;44.30;95261.75;5064965;28;20212;-64
2022/09/09 03:04:57;;;;;;;1.93;1.73;;;;;;;23.57;44.02;95242.53;5068410;28;20198;-62
2022/09/09 03:07:27;;;;;;;1.80;1.70;;;;;;;23.95;43.09;95263.72;5053866;28;20203;-63
2022/09/09 03:09:54;;;;;;;4.80;1.77;;;;;;;23.55;43.62;95276.06;5049551;28;20626;-62
2022/09/09 03:12:25;;;;;;;2.97;2.07;;;;;;;23.13;44.51;95275.25;5060691;28;20199;-62
2022/09/09 03:14:51;;;;;;;0.43;0.43;;;;;;;22.12;47.18;95272.69;5052935;28;20232;-62
2022/09/09 03:17:19;;;;;;;0.40;0.40;;;;;;;22.81;45.69;95271.34;5059387;28;20192;-62
2022/09/09 03:19:52;;;;;;;1.40;1.27;;;;;;;23.27;44.55;95266.97;5061118;28;20195;-62
2022/09/09 03:22:19;;;;;;;1.70;1.00;;;;;;;23.48;44.00;95275.81;5051094;28;20300;-62
2022/09/09 03:24:46;;;;;;;0.87;0.87;;;;;;;23.30;44.58;95269.03;5040994;28;20199;-63
2022/09/09 03:27:17;;;;;;;0.30;0.30;;;;;;;23.20;45.00;95269.38;5043561;28;20537;-63
2022/09/09 03:29:44;;;;;;;1.23;1.10;;;;;;;23.44;44.60;95264.97;5051576;28;20203;-63
2022/09/09 03:32:17;;;;;;;3.80;1.60;;;;;;;23.17;44.66;95243.31;5056332;28;20819;-62
2022/09/09 03:34:44;;;;;;;1.70;1.60;;;;;;;23.65;44.20;95270.31;5062015;28;20204;-64
2022/09/09 03:37:12;;;;;;;0.93;0.87;;;;;;;22.90;46.12;95272.06;5059786;28;20195;-62
2022/09/09 03:39:39;;;;;;;0.97;0.97;;;;;;;23.17;45.12;95278.06;5053584;28;20215;-63
2022/09/09 03:42:08;;;;;;;0.50;0.33;;;;;;;22.52;46.88;95273.97;5067945;28;20192;-64
2022/09/09 03:44:35;;;;;;;0.40;0.40;;;;;;;22.38;47.60;95275.28;5067434;28;20231;-62
2022/09/09 03:47:02;;;;;;;0.53;0.53;;;;;;;22.37;47.46;95269.16;5060526;28;20853;-63
2022/09/09 03:49:29;;;;;;;0.93;0.93;;;;;;;22.85;46.55;95256.25;5064713;28;20335;-62
2022/09/09 03:51:57;;;;;;;0.60;0.60;;;;;;;23.09;45.94;95267.09;5039398;28;20317;-63
2022/09/09 03:54:25;;;;;;;1.37;1.07;;;;;;;23.36;45.11;95273.06;5058183;28;20655;-62
2022/09/09 03:56:51;;;;;;;0.60;0.60;;;;;;;22.99;45.87;95277.38;5056946;28;20471;-64
2022/09/09 03:59:21;;;;;;;2.17;1.70;;;;;;;22.95;46.01;95282.59;5071432;28;20232;-65
2022/09/09 04:01:48;;;;;;;0.70;0.70;;;;;;;23.12;45.70;95279.81;5042383;28;20193;-63
2022/09/09 04:04:15;;;;;;;0.80;0.80;;;;;;;23.05;46.02;95279.53;5062126;28;20196;-62
2022/09/09 04:06:42;;;;;;;1.00;1.00;;;;;;;23.19;45.75;95278.50;5061728;28;20211;-62
2022/09/09 04:09:09;;;;;;;0.40;0.40;;;;;;;23.23;45.62;95284.78;5046879;28;20296;-62
2022/09/09 04:11:36;;;;;;;0.97;0.93;;;;;;;23.05;45.37;95284.88;5060395;28;20237;-63
2022/09/09 04:14:05;;;;;;;1.60;1.50;;;;;;;22.82;46.22;95280.16;5057602;28;20192;-64
2022/09/09 04:16:35;;;;;;;0.30;0.30;;;;;;;22.86;45.88;95276.50;5043191;28;20316;-63
2022/09/09 04:19:04;;;;;;;0.90;0.90;;;;;;;23.08;44.86;95278.13;5047976;28;20217;-63
2022/09/09 04:21:31;;;;;;;5.53;1.23;;;;;;;22.77;45.46;95267.75;5045591;28;20269;-64
2022/09/09 04:23:59;;;;;;;1.03;1.03;;;;;;;23.07;45.11;95274.66;5051966;28;20196;-63
2022/09/09 04:26:26;;;;;;;0.63;0.63;;;;;;;22.97;45.29;95271.59;5052480;28;20633;-63
2022/09/09 04:28:53;;;;;;;2.47;2.20;;;;;;;22.89;45.40;95275.88;5053237;28;20573;-66
2022/09/09 04:31:23;;;;;;;0.57;0.57;;;;;;;22.89;45.40;95275.06;5066918;28;20554;-65
2022/09/09 04:33:53;;;;;;;9.43;5.97;;;;;;;23.03;44.59;95276.41;5056346;28;20243;-61
2022/09/09 04:36:21;;;;;;;13.33;4.83;;;;;;;23.30;44.21;95285.06;5049780;28;20193;-62
2022/09/09 04:38:49;;;;;;;3.73;3.43;;;;;;;23.24;44.30;95281.00;5045179;28;20223;-60
2022/09/09 04:41:17;;;;;;;0.93;0.93;;;;;;;23.17;43.70;95286.06;5038506;28;20204;-60
2022/09/09 04:43:48;;;;;;;0.50;0.50;;;;;;;23.29;43.14;95278.13;5069981;28;20235;-61
2022/09/09 04:46:17;;;;;;;11.47;7.40;;;;;;;23.02;43.39;95285.53;5055387;28;20431;-63
2022/09/09 04:48:45;;;;;;;5.37;3.40;;;;;;;23.27;43.02;95291.03;5052495;28;20201;-63
2022/09/09 04:51:14;;;;;;;0.90;0.90;;;;;;;23.28;42.67;95289.94;5045659;28;20303;-61
2022/09/09 04:53:42;;;;;;;0.63;0.63;;;;;;;22.81;43.54;95279.34;5063422;28;20207;-61
2022/09/09 04:56:15;;;;;;;0.60;0.60;;;;;;;22.80;44.94;95264.44;5057385;28;20205;-62
2022/09/09 04:58:51;;;;;;;1.13;1.13;;;;;;;23.27;43.81;95269.63;5045561;28;20220;-62
2022/09/09 05:01:23;;;;;;;0.90;0.90;;;;;;;23.29;43.99;95262.06;5054733;28;20208;-61
2022/09/09 05:03:53;;;;;;;10.17;1.90;;;;;;;23.30;44.45;95269.03;5051604;28;20197;-62
2022/09/09 05:06:22;;;;;;;3.23;2.00;;;;;;;23.32;44.19;95272.94;5044597;28;20212;-64
2022/09/09 05:08:53;;;;;;;0.43;0.43;;;;;;;23.37;43.71;95263.94;5055952;28;20296;-63
2022/09/09 05:11:26;;;;;;;0.80;0.80;;;;;;;23.34;43.92;95253.91;5039801;28;20206;-61
2022/09/09 05:14:01;;;;;;;1.13;1.07;;;;;;;23.48;43.63;95251.75;5048860;28;20195;-61
2022/09/09 05:16:30;;;;;;;0.70;0.70;;;;;;;23.42;43.83;95245.81;5065818;28;20227;-62
2022/09/09 05:18:58;;;;;;;1.77;1.40;;;;;;;23.57;43.89;95255.13;5056369;28;20218;-61
2022/09/09 05:21:34;;;;;;;1.00;1.00;;;;;;;23.71;43.32;95266.31;5054986;28;20231;-61
2022/09/09 05:24:01;;;;;;;0.73;0.73;;;;;;;23.79;43.24;95265.47;5039426;28;20207;-62
2022/09/09 05:26:29;;;;;;;3.80;2.10;;;;;;;23.75;43.99;95259.19;5047454;28;20676;-60
2022/09/09 05:28:58;;;;;;;1.43;1.17;;;;;;;23.85;43.55;95256.09;5059919;28;20197;-61
2022/09/09 05:31:27;;;;;;;1.73;1.63;;;;;;;23.97;43.45;95246.25;5058410;28;20199;-61
2022/09/09 05:33:54;;;;;;;0.57;0.57;;;;;;;23.91;44.42;95246.75;5054138;28;20207;-62
2022/09/09 05:36:23;;;;;;;1.10;1.00;;;;;;;23.35;44.87;95250.09;5052108;28;20199;-62
2022/09/09 05:38:54;;;;;;;1.20;1.13;;;;;;;23.35;45.03;95223.38;5066997;28;20216;-61
2022/09/09 05:41:22;;;;;;;0.90;0.70;;;;;;;23.87;43.70;95251.22;5055820;28;20694;-60
2022/09/09 05:43:53;;;;;;;0.53;0.53;;;;;;;23.95;44.17;95253.81;5040129;28;20786;-60
2022/09/09 05:46:24;;;;;;;0.50;0.50;;;;;;;23.31;45.10;95254.53;5041471;28;20203;-62
2022/09/09 05:48:53;;;;;;;2.07;1.57;;;;;;;23.75;44.56;95253.84;5054934;28;20262;-60
2022/09/09 05:51:29;;;;;;;0.73;0.73;;;;;;;24.26;43.13;95260.59;5044136;28;20218;-60
2022/09/09 05:53:58;;;;;;;0.60;0.60;;;;;;;24.36;42.87;95268.97;5068036;28;20596;-60
2022/09/09 05:56:29;;;;;;;0.30;0.30;;;;;;;24.38;42.49;95252.59;5042950;28;20209;-61
2022/09/09 05:58:59;;;;;;;3.03;1.80;;;;;;;24.54;42.40;95256.94;5045430;28;20216;-62
2022/09/09 06:01:30;;;;;;;0.80;0.80;;;;;;;24.59;41.75;95262.09;5057807;28;20306;-60
2022/09/09 06:03:58;;;;;;;0.40;0.40;;;;;;;24.65;41.78;95266.09;5062346;28;20208;-62
2022/09/09 06:06:36;;;;;;;8.67;5.00;;;;;;;24.39;41.93;95271.00;5045776;28;20250;-62
2022/09/09 06:09:10;;;;;;;11.23;1.67;;;;;;;24.67;41.53;95279.94;5064898;28;20205;-62
2022/09/09 06:11:40;;;;;;;2.10;1.57;;;;;;;24.41;41.56;95279.50;5074820;28;20226;-60
2022/09/09 06:14:08;;;;;;;0.70;0.70;;;;;;;24.66;40.86;95272.25;5065586;28;20235;-62
2022/09/09 06:16:39;;;;;;;0.83;0.83;;;;;;;24.13;42.06;95273.19;5059452;28;20196;-62
2022/09/09 06:19:14;;;;;;;0.90;0.87;;;;;;;24.26;41.60;95268.63;5066379;28;20220;-62
2022/09/09 06:21:42;;;;;;;1.23;0.90;;;;;;;23.86;42.40;95273.75;5084880;28;20246;-61
2022/09/09 06:24:10;;;;;;;0.30;0.30;;;;;;;24.30;41.42;95275.69;5066575;28;20298;-60
2022/09/09 06:26:42;;;;;;;0.67;0.53;;;;;;;24.54;40.02;95270.34;5064383;28;22467;-63
2022/09/09 06:29:12;;;;;;;2.00;1.37;;;;;;;24.17;41.41;95282.13;5064716;28;20206;-62
2022/09/09 06:31:41;;;;;;;2.20;2.03;;;;;;;24.53;40.80;95284.84;5067351;28;20204;-61
2022/09/09 06:34:21;;;;;;;1.70;1.60;;;;;;;24.64;40.08;95282.50;5040827;28;20728;-62
2022/09/09 06:36:58;;;;;;;1.90;1.80;;;;;;;24.42;40.49;95272.22;5067777;28;20199;-62
2022/09/09 06:39:32;;;;;;;0.57;0.57;;;;;;;23.91;41.44;95270.84;5067499;28;20278;-61
2022/09/09 06:41:59;;;;;;;1.37;1.27;;;;;;;24.44;41.36;95262.75;5067748;28;20192;-62
2022/09/09 06:44:45;;;;;;;1.23;1.13;;;;;;;24.73;40.50;95251.06;5068476;28;20247;-61
2022/09/09 06:47:19;;;;;;;0.47;0.47;;;;;;;25.33;39.11;95260.94;5057791;28;20282;-64
2022/09/09 06:49:47;;;;;;;0.33;0.33;;;;;;;25.31;38.60;95247.09;5061035;28;20685;-61
2022/09/09 06:52:17;;;;;;;0.73;0.73;;;;;;;24.56;41.33;95267.34;5036309;28;20196;-61
2022/09/09 06:54:45;;;;;;;0.43;0.43;;;;;;;25.23;39.23;95275.59;5053730;28;20216;-62
2022/09/09 06:57:14;;;;;;;1.27;1.17;;;;;;;25.06;38.65;95273.16;5047243;28;20605;-61
2022/09/09 07:00:01;;;;;;;0.40;0.40;;;;;;;25.55;38.95;95271.16;5035527;28;20336;-61
2022/09/09 07:02:31;;;;;;;4.60;1.00;;;;;;;25.47;38.61;95277.47;5045852;28;20203;-61
2022/09/09 07:04:59;;;;;;;0.77;0.77;;;;;;;25.27;39.06;95281.06;5047225;28;20196;-62
2022/09/09 07:07:27;;;;;;;0.90;0.90;;;;;;;25.40;38.81;95280.72;5048094;28;20268;-63
2022/09/09 07:09:53;;;;;;;1.23;0.70;;;;;;;25.62;37.75;95282.88;5057954;28;20192;-63
2022/09/09 07:12:20;;;;;;;0.40;0.40;;;;;;;25.96;37.22;95270.78;5068802;28;20316;-61
2022/09/09 07:14:54;;;;;;;0.70;0.57;;;;;;;25.31;38.30;95271.22;5058799;28;20226;-61
2022/09/09 07:17:21;;;;;;;0.40;0.40;;;;;;;25.73;38.31;95267.09;5063563;28;20299;-60
2022/09/09 07:19:48;;;;;;;0.30;0.30;;;;;;;26.03;36.62;95270.97;5046668;28;20224;-61
2022/09/09 07:22:16;;;;;;;0.90;0.90;;;;;;;26.38;36.21;95255.03;5077049;28;20204;-60
2022/09/09 07:24:44;;;;;;;0.83;0.60;;;;;;;25.49;37.59;95234.97;5047488;28;20204;-62
2022/09/09 07:27:12;;;;;;;0.30;0.30;;;;;;;26.23;37.79;95259.25;5063835;28;20222;-60
2022/09/09 07:29:40;;;;;;;0.40;0.40;;;;;;;26.36;36.34;95255.38;5047134;28;20213;-60
2022/09/09 07:32:07;;;;;;;0.40;0.40;;;;;;;26.74;35.90;95258.25;5067932;28;20620;-60
2022/09/09 07:34:36;;;;;;;5.63;1.57;;;;;;;26.34;37.08;95233.44;5064946;28;20598;-59
2022/09/09 07:37:03;;;;;;;2.20;1.50;;;;;;;27.27;36.13;95246.00;5050787;28;20223;-60
2022/09/09 07:39:31;;;;;;;1.27;1.17;;;;;;;27.47;35.23;95247.59;5050643;28;20263;-60
2022/09/09 07:41:58;;;;;;;0.53;0.53;;;;;;;27.62;35.17;95244.09;5067212;28;20215;-60
2022/09/09 07:44:26;;;;;;;0.47;0.47;;;;;;;26.89;35.69;95237.84;5067636;28;20221;-60
2022/09/09 07:47:14;;;;;;;0.50;0.50;;;;;;;26.77;35.36;95251.38;5067528;28;20200;-60
2022/09/09 07:49:46;;;;;;;0.90;0.90;;;;;;;27.44;34.58;95255.63;5064501;28;20596;-60
2022/09/09 07:52:16;;;;;;;0.87;0.80;;;;;;;27.51;34.97;95256.53;5051202;28;20666;-61
2022/09/09 07:54:50;;;;;;;0.30;0.30;;;;;;;27.74;34.95;95256.59;5051608;28;20211;-60
2022/09/09 07:57:17;;;;;;;0.70;0.70;;;;;;;27.60;35.64;95256.31;5057809;28;20188;-61
2022/09/09 07:59:46;;;;;;;1.10;1.00;;;;;;;28.43;34.32;95256.38;5060686;28;20221;-60
2022/09/09 08:02:13;;;;;;;0.73;0.73;;;;;;;27.57;35.02;95247.03;5050515;28;20601;-59
2022/09/09 08:04:42;;;;;;;0.20;0.20;;;;;;;27.58;36.17;95248.59;5059233;28;20192;-60
2022/09/09 08:07:10;;;;;;;0.53;0.53;;;;;;;27.66;36.18;95244.16;5056494;28;20291;-61
2022/09/09 08:09:44;;;;;;;0.97;0.97;;;;;;;27.77;35.34;95245.91;5059208;28;20220;-60
2022/09/09 08:12:18;;;;;;;0.67;0.63;;;;;;;27.80;35.36;95252.50;5062170;28;20291;-59
2022/09/09 08:14:45;;;;;;;0.53;0.40;;;;;;;28.45;34.09;95242.56;5051101;28;20616;-62
2022/09/09 08:17:11;;;;;;;0.30;0.30;;;;;;;28.08;34.83;95245.00;5064075;28;20670;-61
2022/09/09 08:19:38;;;;;;;0.33;0.33;;;;;;;28.34;33.44;95242.34;5055833;28;20306;-61
2022/09/09 08:22:12;;;;;;;1.63;1.53;;;;;;;27.85;34.66;95252.19;5057710;28;20204;-61
2022/09/09 08:24:40;;;;;;;0.30;0.30;;;;;;;28.23;33.98;95246.03;5049902;28;20192;-59
2022/09/09 08:27:09;;;;;;;3.03;1.43;;;;;;;28.58;33.41;95243.94;5061551;28;20659;-61
2022/09/09 08:29:37;;;;;;;0.90;0.80;;;;;;;28.84;33.81;95244.75;5052070;28;20200;-61
2022/09/09 08:32:05;;;;;;;1.00;0.97;;;;;;;28.64;33.41;95243.28;5050093;28;20199;-60
2022/09/09 08:34:33;;;;;;;0.80;0.80;;;;;;;28.70;33.70;95249.16;5049874;28;20204;-59
2022/09/09 08:37:05;;;;;;;0.87;0.87;;;;;;;28.85;33.11;95240.91;5075814;28;20200;-61
2022/09/09 08:39:37;;;;;;;0.40;0.40;;;;;;;28.69;33.15;95242.97;5062593;28;20661;-61
2022/09/09 08:42:16;;;;;;;0.93;0.93;;;;;;;28.41;34.25;95237.06;5058170;28;20636;-60
2022/09/09 08:45:11;;;;;;;2.37;1.40;;;;;;;28.86;33.15;95242.47;5067583;28;20721;-60
2022/09/09 08:48:03;;;;;;;0.63;0.63;;;;;;;28.94;32.64;95233.34;5049450;28;20192;-62
2022/09/09 08:50:38;;;;;;;0.30;0.30;;;;;;;29.19;32.62;95227.53;5061913;28;20299;-61
2022/09/09 08:53:30;;;;;;;0.50;0.50;;;;;;;29.25;33.57;95212.59;5049676;28;20196;-62
2022/09/09 08:56:01;;;;;;;0.90;0.77;;;;;;;29.19;33.31;95222.16;5066288;28;20562;-61
2022/09/09 08:58:54;;;;;;;0.70;0.70;;;;;;;29.38;33.52;95227.44;5063273;28;20328;-62
2022/09/09 09:02:21;;;;;;;0.87;0.87;;;;;;;30.19;31.60;95221.03;5050420;28;20208;-60
2022/09/09 09:05:00;;;;;;;0.50;0.50;;;;;;;29.86;32.41;95221.84;5056081;28;20226;-60
2022/09/09 09:07:40;;;;;;;1.27;0.93;;;;;;;29.95;31.12;95221.56;5049038;28;20682;-61
2022/09/09 09:10:30;;;;;;;0.90;0.90;;;;;;;29.54;31.72;95223.38;5049426;28;20217;-63
2022/09/09 09:13:25;;;;;;;1.30;1.20;;;;;;;30.03;31.50;95228.59;5054152;28;20199;-61
2022/09/09 09:15:59;;;;;;;0.90;0.90;;;;;;;29.95;32.21;95221.56;5065990;28;20201;-59
2022/09/09 09:18:26;;;;;;;3.40;1.23;;;;;;;30.45;32.45;95218.22;5058816;28;20617;-60
2022/09/09 09:21:12;;;;;;;0.90;0.90;;;;;;;30.55;31.73;95217.50;5069220;28;20582;-60
2022/09/09 09:23:48;;;;;;;0.47;0.47;;;;;;;30.15;30.72;95212.09;5055320;28;20201;-60
2022/09/09 09:26:15;;;;;;;1.13;0.77;;;;;;;29.93;31.46;95216.53;5048663;28;20209;-60
2022/09/09 09:28:42;;;;;;;0.67;0.67;;;;;;;30.07;31.08;95205.09;5065496;28;20192;-61
2022/09/09 09:31:14;;;;;;;0.60;0.60;;;;;;;30.18;32.01;95205.97;5063892;28;20585;-60
2022/09/09 09:33:53;;;;;;;1.53;1.43;;;;;;;29.90;31.27;95224.59;5077427;28;20237;-60
2022/09/09 09:36:33;;;;;;;0.60;0.60;;;;;;;29.94;31.84;95220.78;5049062;28;20258;-62
2022/09/09 09:39:04;;;;;;;0.83;0.83;;;;;;;29.68;32.50;95217.38;5065122;28;20671;-63
2022/09/09 09:41:54;;;;;;;0.73;0.73;;;;;;;30.49;31.16;95202.03;5074083;28;20199;-61
2022/09/09 09:44:25;;;;;;;0.70;0.70;;;;;;;30.62;30.69;95204.03;5067099;28;20293;-61
2022/09/09 09:47:05;;;;;;;0.83;0.83;;;;;;;30.96;30.65;95212.03;5056424;28;20597;-60
2022/09/09 09:49:33;;;;;;;1.27;1.17;;;;;;;29.94;33.12;95198.41;5052613;28;20324;-62
2022/09/09 09:52:02;;;;;;;0.83;0.73;;;;;;;30.06;32.45;95190.00;5055843;28;20200;-60
2022/09/09 09:54:36;;;;;;;2.03;1.50;;;;;;;30.85;31.19;95193.81;5055865;28;20204;-60
2022/09/09 09:57:16;;;;;;;0.50;0.50;;;;;;;30.58;30.70;95189.72;5048094;28;20201;-59
2022/09/09 09:59:45;;;;;;;0.47;0.47;;;;;;;29.89;32.13;95198.72;5048302;28;20223;-60
2022/09/09 10:02:26;;;;;;;1.70;1.27;;;;;;;30.29;32.67;95187.94;5048403;28;20199;-63
2022/09/09 10:05:13;;;;;;;0.60;0.60;;;;;;;30.38;31.98;95184.94;5065307;28;20258;-60
2022/09/09 10:07:45;;;;;;;7.23;1.93;;;;;;;30.15;32.22;95185.06;5048654;28;20200;-63
2022/09/09 10:10:20;;;;;;;0.60;0.60;;;;;;;29.88;32.43;95189.06;5061737;28;20666;-60
2022/09/09 10:13:04;;;;;;;0.47;0.47;;;;;;;30.44;31.77;95200.41;5050032;28;20673;-62
2022/09/09 10:16:22;;;;;;;1.23;1.00;;;;;;;30.59;30.98;95196.69;5049513;28;20297;-61
2022/09/09 10:19:16;;;;;;;0.83;0.70;;;;;;;30.33;30.72;95199.56;5067532;28;20804;-62
2022/09/09 10:22:11;;;;;;;0.57;0.57;;;;;;;30.01;31.19;95203.88;5048886;28;20575;-60
2022/09/09 10:24:50;;;;;;;0.57;0.57;;;;;;;30.15;31.17;95204.00;5064242;28;20192;-60
2022/09/09 10:27:31;;;;;;;0.70;0.70;;;;;;;30.05;31.27;95204.69;5049283;28;20196;-62
2022/09/09 10:29:58;;;;;;;1.50;0.90;;;;;;;29.20;32.64;95210.97;5036120;28;20262;-59
2022/09/09 10:32:31;;;;;;;1.27;0.77;;;;;;;29.89;31.83;95206.81;5059056;28;20274;-60
2022/09/09 10:35:01;;;;;;;2.93;1.53;;;;;;;30.02;31.35;95200.00;5037843;28;20553;-60
2022/09/09 10:37:44;;;;;;;1.20;0.90;;;;;;;30.41;31.63;95200.41;5035732;28;20319;-59
2022/09/09 10:40:14;;;;;;;0.50;0.50;;;;;;;30.46;32.47;95208.16;5039152;28;20256;-61
2022/09/09 10:42:42;;;;;;;1.00;0.77;;;;;;;30.56;32.94;95208.28;5039996;28;20200;-60
2022/09/09 10:45:34;;;;;;;0.57;0.57;;;;;;;30.76;31.70;95206.88;5039112;28;20232;-61
2022/09/09 10:48:43;;;;;;;0.57;0.53;;;;;;;30.69;31.74;95211.44;5045297;28;20196;-60
2022/09/09 10:51:22;;;;;;;0.37;0.37;;;;;;;30.44;32.34;95205.84;5038155;28;20206;-60
2022/09/09 10:54:10;;;;;;;0.97;0.97;;;;;;;30.53;31.87;95209.00;5036140;28;20232;-60
2022/09/09 10:56:39;;;;;;;1.00;0.90;;;;;;;30.54;32.05;95209.78;5034172;28;20584;-59
2022/09/09 10:59:17;;;;;;;0.97;0.97;;;;;;;30.60;32.45;95209.03;5036447;28;20283;-59
2022/09/09 11:01:54;;;;;;;1.40;1.07;;;;;;;30.64;32.10;95201.75;5041566;28;20283;-60
2022/09/09 11:04:32;;;;;;;0.80;0.80;;;;;;;30.35;33.43;95202.66;5036485;28;20212;-62
2022/09/09 11:07:04;;;;;;;9.97;1.43;;;;;;;30.10;33.04;95207.03;5034285;28;20184;-60
2022/09/09 11:09:48;;;;;;;0.47;0.47;;;;;;;29.89;33.42;95206.81;5057974;28;20288;-60
2022/09/09 11:12:20;;;;;;;0.83;0.83;;;;;;;30.36;32.61;95198.81;5047830;28;20258;-58
2022/09/09 11:15:04;;;;;;;0.73;0.73;;;;;;;30.53;33.07;95203.59;5059823;28;20341;-61
2022/09/09 11:17:49;;;;;;;1.40;1.03;;;;;;;30.17;34.01;95201.69;5054164;28;20556;-60
2022/09/09 11:20:16;;;;;;;1.00;0.93;;;;;;;30.20;34.55;95211.75;5053931;28;20714;-58
2022/09/09 11:22:51;;;;;;;1.27;1.20;;;;;;;30.43;33.03;95198.88;5055482;28;20186;-61
2022/09/09 11:25:33;;;;;;;2.43;1.20;;;;;;;30.58;32.33;95194.38;5054510;28;20626;-61
2022/09/09 11:28:15;;;;;;;3.13;1.20;;;;;;;30.27;34.23;95179.44;5036392;28;20287;-59
2022/09/09 11:31:11;;;;;;;2.10;1.13;;;;;;;30.19;33.93;95177.78;5062194;28;20248;-60
2022/09/09 11:34:02;;;;;;;9.33;1.70;;;;;;;30.41;33.04;95176.84;5047998;28;20616;-59
2022/09/09 11:36:44;;;;;;;0.77;0.57;;;;;;;30.51;33.73;95173.44;5035656;28;20195;-60
2022/09/09 11:39:29;;;;;;;3.40;2.43;;;;;;;30.37;32.50;95167.91;5047511;28;20219;-60
2022/09/09 11:42:26;;;;;;;1.23;1.00;;;;;;;30.11;33.80;95167.28;5047847;28;20262;-59
2022/09/09 11:44:56;;;;;;;3.90;1.63;;;;;;;30.34;33.85;95159.78;5034700;28;20220;-61
2022/09/09 11:47:31;;;;;;;0.73;0.73;;;;;;;30.33;33.67;95156.28;5048263;28;20597;-59
2022/09/09 11:50:16;;;;;;;1.07;1.07;;;;;;;30.10;34.84;95147.59;5039590;28;20622;-61
2022/09/09 11:52:47;;;;;;;2.17;1.97;;;;;;;30.53;33.24;95129.81;5059740;28;20238;-62
2022/09/09 11:55:32;;;;;;;1.57;1.47;;;;;;;30.50;33.39;95109.69;5050002;28;20291;-60
2022/09/09 11:58:01;;;;;;;3.17;2.13;;;;;;;30.63;33.22;95115.56;5057330;28;20295;-63
2022/09/09 12:00:38;;;;;;;0.53;0.50;;;;;;;30.89;33.66;95113.41;5051833;28;20224;-61
2022/09/09 12:03:06;;;;;;;1.63;1.53;;;;;;;30.69;33.74;95120.22;5048428;28;20639;-61
2022/09/09 12:05:43;;;;;;;0.57;0.57;;;;;;;31.23;33.01;95121.31;5047622;28;20279;-62
2022/09/09 12:08:17;;;;;;;1.90;1.17;;;;;;;30.68;33.77;95131.44;5047901;28;20299;-63
2022/09/09 12:10:55;;;;;;;1.27;1.17;;;;;;;31.23;33.26;95132.13;5049655;28;20223;-62